Terminal Aerodrome Forecast
Issued by NWS Upton, NY

Home | Current Version | Previous Version | Text Only | Print | Product List | Glossary On
Versions: 1 2 3 4 5 6 7 8 9 10 11 12 13 14 15 16 17 18 19 20 21 22 23 24 25 26 27 28 29 30 31 32
000
FTUS41 KOKX 280526
TAFEWR
TAF
KEWR 280526Z 2806/2912 02007KT P6SM SCT250
     FM281100 04008KT P6SM SCT040 BKN250
      TEMPO 2811/2814 BKN040
     FM281400 06011G17KT P6SM BKN030
     FM281900 06012G19KT P6SM -RA BKN020
     FM290300 05013G20KT P6SM -RA BKN015=

USA.gov is the U.S. government's official web portal to all federal, state and local government web resources and services.